Time;durP1;ratioP1;P1;durP2;ratioP2;P2;SDS_P1;SDS_P2;PMS_P1;PMS_P2;Temp;Humidity;BMP_temperature;BMP_pressure;BME280_temperature;BME280_humidity;BME280_pressure;Samples;Min_cycle;Max_cycle;Signal;HPM_P1;HPM_P2
2022/03/29 00:01:03;;;;;;;90.00;44.28;;;7.60;99.90;;;;;;5033816;28;20033;-54
2022/03/29 00:03:29;;;;;;;90.00;43.72;;;7.50;99.90;;;;;;5033750;28;20506;-54
2022/03/29 00:05:55;;;;;;;82.53;40.97;;;7.40;99.90;;;;;;5034023;28;20038;-54
2022/03/29 00:08:21;;;;;;;80.93;38.28;;;7.50;99.90;;;;;;5033587;28;20056;-54
2022/03/29 00:10:47;;;;;;;70.93;36.97;;;7.50;99.90;;;;;;5034021;28;20017;-54
2022/03/29 00:13:13;;;;;;;85.68;44.00;;;7.40;99.90;;;;;;5033564;28;20036;-54
2022/03/29 00:15:39;;;;;;;134.55;61.83;;;7.50;99.90;;;;;;5032373;28;20033;-54
2022/03/29 00:18:05;;;;;;;143.95;66.78;;;7.50;99.90;;;;;;5033811;28;20026;-54
2022/03/29 00:20:31;;;;;;;117.53;56.13;;;7.50;99.90;;;;;;5033775;28;20021;-54
2022/03/29 00:22:57;;;;;;;151.40;67.32;;;7.50;99.90;;;;;;5033567;28;20036;-54
2022/03/29 00:25:23;;;;;;;131.30;61.55;;;7.50;99.90;;;;;;5036856;28;20389;-54
2022/03/29 00:27:49;;;;;;;80.47;41.22;;;7.40;99.90;;;;;;5037921;28;20021;-54
2022/03/29 00:30:16;;;;;;;98.15;46.22;;;7.30;99.90;;;;;;5036498;28;20549;-54
2022/03/29 00:32:44;;;;;;;87.70;40.75;;;7.20;99.90;;;;;;5037478;28;20446;-54
2022/03/29 00:35:10;;;;;;;88.88;42.60;;;7.20;99.90;;;;;;5037623;28;20025;-54
2022/03/29 00:37:38;;;;;;;98.97;47.25;;;7.20;99.90;;;;;;5037545;28;20036;-54
2022/03/29 00:40:05;;;;;;;107.32;50.17;;;7.10;99.90;;;;;;5037600;28;20434;-54
2022/03/29 00:42:31;;;;;;;120.35;52.38;;;7.20;99.90;;;;;;5037234;28;20033;-53
2022/03/29 00:44:58;;;;;;;104.90;50.42;;;7.30;99.90;;;;;;5037446;28;20029;-54
2022/03/29 00:47:24;;;;;;;110.78;51.65;;;7.30;99.90;;;;;;5037256;28;20036;-54
2022/03/29 00:49:50;;;;;;;98.10;46.50;;;7.20;99.90;;;;;;5037380;28;20036;-54
2022/03/29 00:52:17;;;;;;;93.93;45.28;;;7.30;99.90;;;;;;5037348;28;20557;-54
2022/03/29 00:54:44;;;;;;;85.22;41.70;;;7.20;99.90;;;;;;5037398;28;20112;-54
2022/03/29 00:57:11;;;;;;;74.85;38.22;;;7.10;99.90;;;;;;5036995;28;20052;-54
2022/03/29 00:59:39;;;;;;;72.63;37.42;;;7.00;99.90;;;;;;5037078;28;20034;-54
2022/03/29 01:02:05;;;;;;;72.72;38.05;;;6.90;99.90;;;;;;5037097;28;20379;-54
2022/03/29 01:04:32;;;;;;;70.38;36.67;;;6.90;99.90;;;;;;5036867;28;20053;-54
2022/03/29 01:06:59;;;;;;;74.28;38.78;;;6.80;99.90;;;;;;5037288;28;20480;-54
2022/03/29 01:09:30;;;;;;;92.65;38.92;;;6.90;99.90;;;;;;5036617;28;20029;-54
2022/03/29 01:11:57;;;;;;;;;;;6.80;99.90;;;;;;5037442;28;20060;-54
2022/03/29 01:14:24;;;;;;;72.72;35.92;;;6.70;99.90;;;;;;5036714;28;19913;-54
2022/03/29 01:19:40;;;;;;;79.47;39.58;;;6.70;99.90;;;;;;5036686;28;20108;-54
2022/03/29 01:22:09;;;;;;;79.35;39.38;;;6.60;99.90;;;;;;5036622;28;20142;-54
2022/03/29 01:24:36;;;;;;;85.88;40.45;;;6.70;99.90;;;;;;5036745;28;20045;-54
2022/03/29 01:27:05;;;;;;;80.32;38.40;;;6.70;99.90;;;;;;5036884;28;20032;-54
2022/03/29 01:29:32;;;;;;;79.95;38.97;;;6.70;99.90;;;;;;5036514;28;20467;-54
2022/03/29 01:32:01;;;;;;;74.63;38.20;;;6.70;99.90;;;;;;5036702;28;20044;-54
2022/03/29 01:34:28;;;;;;;75.80;38.38;;;6.70;99.90;;;;;;5036577;28;20356;-54
2022/03/29 01:36:55;;;;;;;74.63;37.03;;;6.70;99.90;;;;;;5035970;28;20040;-54
2022/03/29 01:39:21;;;;;;;79.70;39.35;;;6.80;99.90;;;;;;5036336;28;20049;-54
2022/03/29 01:41:48;;;;;;;77.28;39.22;;;6.80;99.90;;;;;;5036457;28;20029;-54
2022/03/29 01:44:14;;;;;;;78.57;37.08;;;6.70;99.90;;;;;;5036595;28;20033;-54
2022/03/29 01:46:40;;;;;;;75.25;36.83;;;6.70;99.90;;;;;;5036134;28;20426;-54
2022/03/29 01:49:07;;;;;;;69.30;34.40;;;6.60;99.90;;;;;;5036357;28;20032;-54
2022/03/29 01:51:33;;;;;;;66.18;34.90;;;6.50;99.90;;;;;;5036078;28;20048;-54
2022/03/29 01:54:02;;;;;;;82.18;39.05;;;6.50;99.90;;;;;;5036312;28;20493;-54
2022/03/29 01:56:31;;;;;;;80.22;37.75;;;6.50;99.90;;;;;;5035979;28;20541;-54
2022/03/29 01:58:57;;;;;;;86.13;40.03;;;6.50;99.90;;;;;;5036134;28;20032;-54
2022/03/29 02:01:23;;;;;;;89.63;42.20;;;6.60;99.90;;;;;;5035778;28;20079;-54
2022/03/29 02:03:50;;;;;;;95.78;46.30;;;6.60;99.90;;;;;;5035996;28;20493;-54
2022/03/29 02:06:16;;;;;;;104.45;47.40;;;6.60;99.90;;;;;;5035966;28;20100;-53
2022/03/29 02:08:42;;;;;;;91.10;42.08;;;6.60;99.90;;;;;;5035841;28;20071;-54
2022/03/29 02:11:08;;;;;;;75.15;37.10;;;6.60;99.90;;;;;;5035742;28;20487;-54
2022/03/29 02:13:34;;;;;;;68.38;35.20;;;6.60;99.90;;;;;;5035755;28;20079;-54
2022/03/29 02:16:00;;;;;;;71.25;36.13;;;6.50;99.90;;;;;;5035772;28;20369;-54
2022/03/29 02:18:26;;;;;;;74.20;35.63;;;6.40;99.90;;;;;;5035510;28;20048;-54
2022/03/29 02:20:53;;;;;;;73.35;37.45;;;6.50;99.90;;;;;;5035714;28;20025;-54
2022/03/29 02:23:19;;;;;;;66.43;33.53;;;6.50;99.90;;;;;;5035563;28;20025;-54
2022/03/29 02:25:47;;;;;;;67.32;35.90;;;6.40;99.90;;;;;;5035640;28;20017;-54
2022/03/29 02:28:14;;;;;;;65.18;35.10;;;6.30;99.90;;;;;;5035655;28;20518;-54
2022/03/29 02:30:40;;;;;;;58.63;32.38;;;6.30;99.90;;;;;;5033926;28;20376;-54
2022/03/29 02:33:07;;;;;;;64.88;34.00;;;6.20;99.90;;;;;;5035411;28;20483;-54
2022/03/29 02:35:33;;;;;;;58.10;31.77;;;6.10;99.90;;;;;;5035405;28;20491;-54
2022/03/29 02:37:59;;;;;;;64.60;33.33;;;6.00;99.90;;;;;;5035522;28;20088;-54
2022/03/29 02:40:26;;;;;;;62.78;32.10;;;6.00;99.90;;;;;;5035050;28;20534;-54
2022/03/29 02:42:55;;;;;;;68.90;35.30;;;6.00;99.90;;;;;;5035297;28;20029;-54
2022/03/29 02:45:25;;;;;;;74.22;35.92;;;5.90;99.90;;;;;;5034855;28;20092;-54
2022/03/29 02:47:53;;;;;;;71.17;36.60;;;6.00;99.90;;;;;;5034225;28;20117;-54
2022/03/29 02:50:20;;;;;;;71.50;37.33;;;6.00;99.90;;;;;;5035275;28;20272;-54
2022/03/29 02:52:48;;;;;;;68.85;36.97;;;6.00;99.90;;;;;;5035072;28;20036;-54
2022/03/29 02:55:15;;;;;;;69.25;36.40;;;6.00;99.90;;;;;;5034950;28;20494;-54
2022/03/29 02:57:42;;;;;;;65.57;34.72;;;6.00;99.90;;;;;;5034770;28;20395;-54
2022/03/29 03:00:11;;;;;;;64.97;36.30;;;5.90;99.90;;;;;;5034998;28;20030;-54
2022/03/29 03:02:37;;;;;;;66.30;34.75;;;5.80;99.90;;;;;;5034880;28;20215;-54
2022/03/29 03:05:03;;;;;;;63.42;30.92;;;5.70;99.90;;;;;;5034963;28;20068;-54
2022/03/29 03:07:29;;;;;;;59.17;32.45;;;5.60;99.90;;;;;;5034836;28;20026;-54
2022/03/29 03:09:56;;;;;;;64.40;33.30;;;5.60;99.90;;;;;;5034793;28;20487;-54
2022/03/29 03:12:21;;;;;;;66.78;32.63;;;5.60;99.90;;;;;;5034504;28;20044;-54
2022/03/29 03:14:48;;;;;;;65.72;34.95;;;5.60;99.90;;;;;;5034731;28;20029;-54
2022/03/29 03:17:14;;;;;;;63.88;35.10;;;5.50;99.90;;;;;;5034924;28;20085;-54
2022/03/29 03:19:40;;;;;;;77.68;39.50;;;5.50;99.90;;;;;;5034487;28;20041;-54
2022/03/29 03:22:06;;;;;;;73.97;36.85;;;5.50;99.90;;;;;;5034644;28;20036;-54
2022/03/29 03:24:32;;;;;;;70.03;37.72;;;5.40;99.90;;;;;;5034506;28;20468;-54
2022/03/29 03:26:58;;;;;;;59.15;31.88;;;5.30;99.90;;;;;;5034465;28;20030;-54
2022/03/29 03:29:24;;;;;;;61.72;31.98;;;5.20;99.90;;;;;;5034269;28;20041;-54
2022/03/29 03:31:50;;;;;;;61.05;32.53;;;5.10;99.90;;;;;;5034537;28;20025;-54
2022/03/29 03:34:16;;;;;;;60.42;33.38;;;5.00;99.90;;;;;;5034359;28;20558;-54
2022/03/29 03:36:42;;;;;;;71.32;36.70;;;5.00;99.90;;;;;;5034240;28;20483;-54
2022/03/29 03:39:08;;;;;;;64.93;38.05;;;5.10;99.90;;;;;;5034433;28;20037;-54
2022/03/29 03:41:37;;;;;;;66.57;35.80;;;5.20;99.90;;;;;;5034341;28;20029;-54
2022/03/29 03:44:03;;;;;;;64.07;33.42;;;5.20;99.90;;;;;;5034495;28;20091;-54
2022/03/29 03:46:29;;;;;;;66.68;36.88;;;5.30;99.90;;;;;;5034143;28;20029;-54
2022/03/29 03:48:55;;;;;;;69.82;36.40;;;5.30;99.90;;;;;;5034111;28;20029;-54
2022/03/29 03:51:21;;;;;;;71.70;35.60;;;5.40;99.90;;;;;;5034110;28;20460;-54
2022/03/29 03:53:49;;;;;;;75.15;35.97;;;5.40;99.90;;;;;;5034228;28;20120;-54
2022/03/29 03:56:15;;;;;;;77.70;36.35;;;5.30;99.90;;;;;;5033969;28;20073;-54
2022/03/29 03:58:41;;;;;;;75.82;36.45;;;5.20;99.90;;;;;;5033611;28;20060;-54
2022/03/29 04:01:11;;;;;;;69.43;36.25;;;5.10;99.90;;;;;;5034114;28;20566;-54
2022/03/29 04:03:38;;;;;;;71.15;37.08;;;5.00;99.90;;;;;;5033761;28;20116;-54
2022/03/29 04:06:04;;;;;;;75.55;36.20;;;4.90;99.90;;;;;;5034008;28;20036;-54
2022/03/29 04:08:30;;;;;;;142.10;66.60;;;4.80;99.90;;;;;;5033848;28;20030;-54
2022/03/29 04:10:57;;;;;;;86.13;44.28;;;4.80;99.90;;;;;;5033857;28;20442;-54
2022/03/29 04:13:23;;;;;;;148.35;72.07;;;4.70;99.90;;;;;;5033693;28;20029;-54
2022/03/29 04:15:49;;;;;;;119.15;60.03;;;4.70;99.90;;;;;;5033926;28;20398;-54
2022/03/29 04:18:16;;;;;;;81.75;42.55;;;4.70;99.90;;;;;;5033852;28;20036;-54
2022/03/29 04:20:42;;;;;;;76.57;39.33;;;4.70;99.90;;;;;;5033608;28;20025;-54
2022/03/29 04:23:08;;;;;;;75.13;38.97;;;4.70;99.90;;;;;;5034237;28;20029;-54
2022/03/29 04:25:35;;;;;;;92.60;41.38;;;4.70;99.90;;;;;;5033717;28;20364;-54
2022/03/29 04:28:01;;;;;;;79.95;40.33;;;4.80;99.90;;;;;;5033970;28;20065;-54
2022/03/29 04:30:27;;;;;;;69.18;35.22;;;4.70;99.90;;;;;;5033585;28;20028;-54
2022/03/29 04:32:54;;;;;;;69.97;34.45;;;4.60;99.90;;;;;;5033636;28;20030;-54
2022/03/29 04:35:20;;;;;;;72.68;36.55;;;4.50;99.90;;;;;;5033716;28;20033;-54
2022/03/29 04:37:46;;;;;;;73.05;37.75;;;4.50;99.90;;;;;;5033610;28;20029;-54
2022/03/29 04:40:12;;;;;;;67.50;36.95;;;4.60;99.90;;;;;;5033489;28;20048;-54
2022/03/29 04:42:46;;;;;;;88.00;39.35;;;4.50;99.90;;;;;;5033357;28;20033;-54
2022/03/29 04:45:13;;;;;;;94.68;41.80;;;4.60;99.90;;;;;;5033479;28;20073;-54
2022/03/29 04:47:41;;;;;;;90.00;40.85;;;4.60;99.90;;;;;;5033417;28;20370;-54
2022/03/29 04:50:08;;;;;;;84.38;39.92;;;4.50;99.90;;;;;;5033570;28;20037;-54
2022/03/29 04:52:34;;;;;;;75.43;37.08;;;4.60;99.90;;;;;;5033279;28;20040;-54
2022/03/29 04:55:00;;;;;;;75.88;37.45;;;4.60;99.90;;;;;;5033665;28;20029;-54
2022/03/29 04:57:26;;;;;;;81.68;40.83;;;4.40;99.90;;;;;;5033187;28;20120;-54
2022/03/29 04:59:52;;;;;;;79.43;41.70;;;4.40;99.90;;;;;;5033405;28;20108;-54
2022/03/29 05:02:18;;;;;;;98.53;47.30;;;4.60;99.90;;;;;;5033791;28;20578;-54
2022/03/29 05:04:45;;;;;;;95.90;47.20;;;4.60;99.90;;;;;;5034045;28;20109;-54
2022/03/29 05:07:11;;;;;;;104.72;49.65;;;4.70;99.90;;;;;;5034155;28;20040;-54
2022/03/29 05:09:37;;;;;;;97.97;51.20;;;4.80;99.90;;;;;;5033919;28;20033;-54
2022/03/29 05:12:03;;;;;;;108.95;49.67;;;4.80;99.90;;;;;;5036858;28;20470;-54
2022/03/29 05:14:29;;;;;;;95.38;48.42;;;4.90;99.90;;;;;;5037666;28;20030;-54
2022/03/29 05:17:01;;;;;;;100.60;45.35;;;4.90;99.90;;;;;;5052303;28;20080;-53
2022/03/29 05:19:27;;;;;;;100.07;46.30;;;5.00;99.90;;;;;;5055812;28;20033;-53
2022/03/29 05:21:54;;;;;;;121.00;45.92;;;5.10;99.90;;;;;;5046832;28;20047;-53
2022/03/29 05:24:20;;;;;;;100.53;46.67;;;5.20;99.90;;;;;;5051506;28;20029;-54
2022/03/29 05:26:46;;;;;;;96.82;46.33;;;5.30;99.90;;;;;;5047557;28;21012;-53
2022/03/29 05:29:13;;;;;;;103.30;49.13;;;5.50;99.90;;;;;;5052506;28;20044;-53
2022/03/29 05:31:40;;;;;;;105.70;47.55;;;5.60;99.90;;;;;;5054663;28;20033;-54
2022/03/29 05:34:06;;;;;;;96.15;46.60;;;5.80;99.90;;;;;;5053273;28;20475;-52
2022/03/29 05:36:32;;;;;;;114.95;49.13;;;6.00;99.90;;;;;;5039999;28;20029;-55
2022/03/29 05:38:58;;;;;;;99.88;45.88;;;6.10;99.90;;;;;;5032439;28;20475;-54
2022/03/29 05:41:24;;;;;;;97.55;44.67;;;6.30;99.90;;;;;;5056032;28;20091;-60
2022/03/29 05:43:51;;;;;;;101.00;48.33;;;6.50;99.90;;;;;;5049467;28;20559;-60
2022/03/29 05:49:02;;;;;;;112.30;48.90;;;6.70;99.90;;;;;;5052940;28;20029;-60
2022/03/29 05:51:29;;;;;;;133.10;51.72;;;6.90;99.90;;;;;;5051056;28;20075;-60
2022/03/29 05:53:57;;;;;;;129.65;53.83;;;7.20;99.90;;;;;;5042733;28;20147;-61
2022/03/29 05:56:23;;;;;;;126.28;52.78;;;7.40;99.90;;;;;;5029699;28;20049;-61
2022/03/29 05:58:50;;;;;;;132.43;57.15;;;7.60;99.90;;;;;;5053125;28;20029;-60
2022/03/29 06:01:18;;;;;;;138.23;57.22;;;7.80;99.90;;;;;;5042769;28;20040;-60
2022/03/29 06:03:44;;;;;;;132.82;59.03;;;7.90;99.90;;;;;;5045033;28;20017;-60
2022/03/29 06:06:10;;;;;;;163.30;58.25;;;8.10;99.90;;;;;;5039618;28;20032;-60
2022/03/29 06:08:36;;;;;;;134.73;56.53;;;8.30;99.90;;;;;;5041683;28;20034;-59
2022/03/29 06:11:04;;;;;;;127.38;53.25;;;8.50;99.90;;;;;;5038660;28;20029;-59
2022/03/29 06:13:30;;;;;;;116.60;53.50;;;8.70;99.90;;;;;;5045520;28;20111;-60
2022/03/29 06:15:56;;;;;;;109.03;51.38;;;8.80;99.90;;;;;;5050434;28;20607;-60
2022/03/29 06:18:22;;;;;;;116.03;52.22;;;9.00;99.90;;;;;;5040681;28;20037;-60
2022/03/29 06:20:49;;;;;;;109.97;52.28;;;9.10;99.90;;;;;;5054154;28;20027;-60
2022/03/29 06:23:16;;;;;;;110.85;53.63;;;9.20;99.90;;;;;;5055035;28;20079;-60
2022/03/29 06:25:42;;;;;;;112.00;53.00;;;9.40;99.90;;;;;;5055273;28;20025;-60
2022/03/29 06:28:10;;;;;;;101.47;51.97;;;9.60;99.90;;;;;;5055116;28;20066;-60
2022/03/29 06:30:38;;;;;;;97.28;49.13;;;9.80;99.90;;;;;;5054926;28;20470;-60
2022/03/29 06:33:04;;;;;;;100.15;49.75;;;10.10;99.90;;;;;;5055159;28;20029;-60
2022/03/29 06:35:31;;;;;;;100.43;50.33;;;10.40;99.90;;;;;;5055042;28;20047;-60
2022/03/29 06:37:58;;;;;;;120.68;54.45;;;10.70;99.90;;;;;;5053468;28;20029;-60
2022/03/29 06:40:27;;;;;;;111.22;51.50;;;10.90;99.90;;;;;;5054846;28;20048;-60
2022/03/29 06:42:57;;;;;;;121.38;53.13;;;11.20;99.90;;;;;;5054279;28;20033;-60
2022/03/29 06:45:25;;;;;;;99.75;51.13;;;11.50;99.90;;;;;;5051141;28;20025;-60
2022/03/29 06:47:51;;;;;;;117.70;53.88;;;11.70;99.90;;;;;;5040919;28;20029;-60
2022/03/29 06:50:17;;;;;;;102.28;50.80;;;12.00;99.90;;;;;;5045062;28;20026;-60
2022/03/29 06:52:45;;;;;;;103.65;52.50;;;12.30;99.90;;;;;;5042691;28;20082;-60
2022/03/29 06:55:13;;;;;;;110.93;54.70;;;12.50;99.10;;;;;;5047092;28;20041;-60
2022/03/29 06:57:39;;;;;;;121.45;57.92;;;12.60;98.40;;;;;;5051785;28;20064;-60
2022/03/29 07:00:09;;;;;;;128.80;57.20;;;12.80;99.00;;;;;;5054457;28;20040;-60
2022/03/29 07:02:36;;;;;;;112.60;56.85;;;13.00;99.20;;;;;;5040182;28;20039;-60
2022/03/29 07:05:03;;;;;;;116.40;57.55;;;13.40;98.50;;;;;;5049005;28;20104;-60
2022/03/29 07:07:29;;;;;;;97.78;50.47;;;13.70;97.40;;;;;;5053002;28;20029;-61
2022/03/29 07:12:49;;;;;;;126.32;61.13;;;14.30;95.30;;;;;;5051937;28;20041;-60
2022/03/29 07:15:16;;;;;;;105.53;54.08;;;14.50;94.90;;;;;;5054576;28;20029;-61
2022/03/29 07:17:43;;;;;;;128.32;60.90;;;14.90;95.30;;;;;;5050864;28;20029;-60
2022/03/29 07:20:09;;;;;;;126.32;56.20;;;15.20;93.00;;;;;;5045648;28;20067;-60
2022/03/29 07:22:35;;;;;;;119.88;59.45;;;15.30;92.60;;;;;;5048889;28;20021;-60
2022/03/29 07:25:04;;;;;;;111.90;55.53;;;15.50;92.50;;;;;;5052734;28;20540;-61
2022/03/29 07:27:32;;;;;;;115.60;55.05;;;15.40;92.70;;;;;;5051580;28;20024;-61
2022/03/29 07:30:00;;;;;;;118.97;56.55;;;15.80;92.00;;;;;;5052973;28;20021;-60
2022/03/29 07:32:27;;;;;;;103.68;52.10;;;16.20;87.60;;;;;;5051336;28;20025;-60
2022/03/29 07:34:54;;;;;;;115.22;54.88;;;16.40;91.00;;;;;;5050120;28;20037;-60
2022/03/29 07:37:21;;;;;;;94.32;51.08;;;16.50;89.10;;;;;;5039957;28;20480;-60
2022/03/29 07:39:48;;;;;;;108.15;54.78;;;16.80;86.70;;;;;;5038164;28;20048;-61
2022/03/29 07:42:15;;;;;;;127.30;56.40;;;17.20;87.10;;;;;;5042434;28;20104;-60
2022/03/29 07:44:41;;;;;;;110.90;52.78;;;17.50;75.50;;;;;;5050093;28;20479;-61
2022/03/29 07:47:06;;;;;;;119.68;59.47;;;17.50;76.80;;;;;;5052303;28;20090;-61
2022/03/29 07:49:32;;;;;;;104.18;50.80;;;17.80;73.80;;;;;;5047221;28;20045;-61
2022/03/29 07:51:58;;;;;;;121.40;50.30;;;18.40;63.60;;;;;;5051718;28;20029;-61
2022/03/29 07:54:25;;;;;;;113.65;51.85;;;18.70;60.70;;;;;;5046299;28;20073;-61
2022/03/29 07:56:51;;;;;;;90.63;48.03;;;18.70;58.80;;;;;;5051061;28;20045;-62
2022/03/29 07:59:16;;;;;;;100.15;48.75;;;19.00;56.60;;;;;;5052487;28;20021;-61
2022/03/29 08:01:42;;;;;;;94.70;47.17;;;19.20;55.70;;;;;;5048791;28;20467;-62
2022/03/29 08:04:09;;;;;;;83.25;44.80;;;19.70;54.90;;;;;;5059133;28;20031;-59
2022/03/29 08:06:35;;;;;;;85.68;46.72;;;19.90;48.60;;;;;;5050868;28;20074;-59
2022/03/29 08:09:01;;;;;;;84.10;46.05;;;20.10;47.10;;;;;;5050909;28;20025;-59
2022/03/29 08:11:29;;;;;;;87.55;48.35;;;20.10;46.90;;;;;;5048970;28;20033;-59
2022/03/29 08:13:56;;;;;;;86.13;45.33;;;20.40;46.70;;;;;;5051734;28;20120;-59
2022/03/29 08:16:22;;;;;;;69.35;43.60;;;20.70;45.70;;;;;;5053261;28;20057;-62
2022/03/29 08:18:48;;;;;;;72.53;43.70;;;20.90;44.30;;;;;;5053573;28;20498;-62
2022/03/29 08:24:00;;;;;;;73.65;42.60;;;21.20;44.80;;;;;;5053398;28;20043;-61
2022/03/29 08:26:26;;;;;;;71.53;42.53;;;21.50;42.80;;;;;;5052636;28;20032;-61
2022/03/29 08:28:52;;;;;;;90.05;46.25;;;21.60;41.50;;;;;;5040796;28;20514;-61
2022/03/29 08:31:19;;;;;;;69.32;40.38;;;21.70;40.50;;;;;;5040381;28;20029;-61
2022/03/29 08:33:45;;;;;;;70.20;42.00;;;22.00;40.40;;;;;;5051467;28;20069;-61
2022/03/29 08:36:11;;;;;;;62.25;39.85;;;22.40;40.20;;;;;;5045565;28;20076;-60
2022/03/29 08:38:37;;;;;;;70.43;39.75;;;22.40;38.80;;;;;;5043486;28;20029;-60
2022/03/29 08:41:05;;;;;;;86.28;40.95;;;22.60;37.70;;;;;;5042650;28;20041;-60
2022/03/29 08:43:31;;;;;;;65.22;39.70;;;22.70;38.00;;;;;;5034566;28;20033;-60
2022/03/29 08:45:57;;;;;;;64.53;39.63;;;23.20;37.10;;;;;;5054048;28;20033;-60
2022/03/29 08:48:25;;;;;;;76.78;39.90;;;23.60;37.80;;;;;;5056013;28;20033;-60
2022/03/29 08:50:57;;;;;;;69.65;39.95;;;23.90;35.70;;;;;;5046807;28;20071;-60
2022/03/29 08:53:23;;;;;;;65.82;38.05;;;24.20;34.80;;;;;;5047559;28;20714;-60
2022/03/29 08:55:50;;;;;;;58.63;35.63;;;24.20;33.00;;;;;;5050031;28;20128;-60
2022/03/29 08:58:17;;;;;;;57.72;35.13;;;23.80;31.80;;;;;;5051798;28;20083;-60
2022/03/29 09:00:46;;;;;;;62.75;35.08;;;23.60;32.30;;;;;;5053048;28;20064;-62
2022/03/29 09:03:19;;;;;;;59.30;34.15;;;23.40;32.50;;;;;;5052910;28;20041;-62
2022/03/29 09:05:48;;;;;;;58.13;33.40;;;23.80;34.50;;;;;;5053976;28;20017;-62
2022/03/29 09:08:15;;;;;;;71.20;36.53;;;24.30;33.50;;;;;;5055827;28;20017;-61
2022/03/29 09:10:50;;;;;;;61.97;33.83;;;24.30;31.80;;;;;;5056580;28;20082;-62
2022/03/29 09:13:17;;;;;;;54.83;31.23;;;24.30;31.50;;;;;;5056186;28;20025;-61
2022/03/29 09:15:43;;;;;;;51.55;31.70;;;24.70;30.30;;;;;;5044046;28;20037;-62
2022/03/29 09:18:13;;;;;;;56.85;31.20;;;24.90;29.70;;;;;;5044034;28;20033;-62
2022/03/29 09:20:39;;;;;;;63.95;32.10;;;25.10;29.00;;;;;;5046937;28;20060;-62
2022/03/29 09:23:18;;;;;;;61.40;33.00;;;25.60;29.70;;;;;;5053507;28;20033;-62
2022/03/29 09:25:49;;;;;;;60.70;28.73;;;25.50;28.30;;;;;;5043757;28;20025;-62
2022/03/29 09:28:17;;;;;;;40.17;26.42;;;24.90;26.00;;;;;;5049673;28;20113;-62
2022/03/29 09:30:46;;;;;;;43.42;26.95;;;24.30;25.90;;;;;;5051862;28;20091;-62
2022/03/29 09:33:13;;;;;;;47.70;28.13;;;24.20;26.40;;;;;;5042093;28;20033;-61
2022/03/29 09:36:12;;;;;;;33.95;23.67;;;24.00;27.00;;;;;;5048242;28;20060;-61
2022/03/29 09:38:41;;;;;;;73.43;30.33;;;23.60;25.80;;;;;;5051247;28;20038;-61
2022/03/29 09:41:32;;;;;;;41.20;27.27;;;24.40;27.60;;;;;;5046947;28;20060;-61
2022/03/29 09:44:06;;;;;;;54.05;28.48;;;24.80;27.20;;;;;;5045761;28;20383;-62
2022/03/29 09:46:55;;;;;;;41.47;24.27;;;25.20;26.60;;;;;;5053764;28;20071;-62
2022/03/29 09:49:22;;;;;;;52.38;25.13;;;24.80;26.20;;;;;;5049575;28;20112;-61
2022/03/29 09:52:11;;;;;;;38.92;24.60;;;24.70;25.90;;;;;;5054273;28;20109;-62
2022/03/29 09:54:38;;;;;;;42.13;25.30;;;25.10;26.10;;;;;;5047314;28;20029;-61
2022/03/29 09:57:04;;;;;;;44.60;24.23;;;25.70;26.60;;;;;;5046384;28;20057;-62
2022/03/29 09:59:34;;;;;;;49.67;25.13;;;26.10;25.60;;;;;;5047878;28;20033;-62
2022/03/29 10:02:00;;;;;;;42.67;23.98;;;26.40;24.90;;;;;;5054822;28;20071;-62
2022/03/29 10:04:29;;;;;;;53.58;26.15;;;26.90;24.40;;;;;;5055541;28;20029;-61
2022/03/29 10:06:57;;;;;;;47.30;25.17;;;26.70;23.60;;;;;;5052214;28;20021;-62
2022/03/29 10:09:37;;;;;;;38.47;24.67;;;26.10;23.60;;;;;;5050230;28;20123;-62
2022/03/29 10:12:09;;;;;;;39.22;24.52;;;25.70;23.10;;;;;;5043929;28;20034;-62
2022/03/29 10:14:41;;;;;;;44.58;25.13;;;25.30;23.60;;;;;;5045715;28;20029;-61
2022/03/29 10:17:08;;;;;;;36.00;23.75;;;25.30;24.00;;;;;;5040964;28;20271;-61
2022/03/29 10:19:39;;;;;;;42.63;27.02;;;25.50;24.30;;;;;;5053029;28;20055;-61
2022/03/29 10:22:05;;;;;;;35.92;24.13;;;25.10;24.60;;;;;;5054961;28;20386;-62
2022/03/29 10:24:32;;;;;;;31.02;22.65;;;25.70;25.10;;;;;;5046443;28;20040;-62
2022/03/29 10:27:00;;;;;;;50.45;25.80;;;26.50;23.70;;;;;;5055785;28;20127;-62
2022/03/29 10:29:27;;;;;;;42.40;26.58;;;26.70;23.40;;;;;;5056133;28;20132;-62
2022/03/29 10:32:02;;;;;;;50.15;27.67;;;27.20;22.70;;;;;;5056112;28;20041;-62
2022/03/29 10:34:30;;;;;;;43.25;26.58;;;26.80;22.00;;;;;;5056099;28;20135;-62
2022/03/29 10:37:12;;;;;;;46.20;25.85;;;27.10;22.70;;;;;;5055783;28;20021;-62
2022/03/29 10:39:51;;;;;;;55.95;27.80;;;27.50;23.60;;;;;;5055320;28;20490;-61
2022/03/29 10:42:26;;;;;;;65.70;29.70;;;27.70;23.20;;;;;;5050081;28;20037;-62
2022/03/29 10:45:16;;;;;;;35.88;25.05;;;27.90;21.80;;;;;;5054107;28;20289;-61
2022/03/29 10:47:46;;;;;;;48.20;26.97;;;27.60;21.80;;;;;;5041851;28;20072;-62
2022/03/29 10:50:14;;;;;;;35.10;25.23;;;26.60;20.80;;;;;;5051502;28;20025;-62
2022/03/29 10:52:48;;;;;;;39.33;25.38;;;26.30;21.70;;;;;;5054589;28;20024;-62
2022/03/29 10:55:20;;;;;;;47.08;26.70;;;26.80;22.30;;;;;;5053215;28;20032;-62
2022/03/29 10:58:13;;;;;;;37.10;24.85;;;27.10;21.90;;;;;;5052936;28;20037;-62
2022/03/29 11:00:46;;;;;;;44.92;26.60;;;27.00;21.60;;;;;;5049030;28;20040;-62
2022/03/29 11:03:20;;;;;;;50.35;28.77;;;26.90;21.80;;;;;;5053496;28;20152;-62
2022/03/29 11:06:11;;;;;;;40.03;26.42;;;26.50;21.80;;;;;;5049662;28;20051;-62
2022/03/29 11:08:42;;;;;;;42.88;24.27;;;27.20;23.00;;;;;;5047565;28;20029;-62
2022/03/29 11:11:29;;;;;;;42.05;23.52;;;27.10;21.40;;;;;;5045626;28;20021;-62
2022/03/29 11:13:55;;;;;;;52.85;27.88;;;27.40;21.00;;;;;;5053922;28;20039;-62
2022/03/29 11:16:31;;;;;;;45.05;25.85;;;27.30;20.80;;;;;;5054272;28;20040;-61
2022/03/29 11:18:58;;;;;;;51.33;28.23;;;27.50;21.30;;;;;;5052152;28;20366;-62
2022/03/29 11:21:39;;;;;;;47.95;26.63;;;27.60;21.10;;;;;;5048808;28;20478;-60
2022/03/29 11:24:08;;;;;;;41.30;24.30;;;28.10;21.20;;;;;;5053941;28;20096;-60
2022/03/29 11:26:35;;;;;;;30.27;21.67;;;27.40;19.60;;;;;;5052663;28;20036;-60
2022/03/29 11:29:02;;;;;;;36.30;24.02;;;26.70;20.20;;;;;;5046964;28;20021;-60
2022/03/29 11:31:36;;;;;;;33.75;23.38;;;26.40;20.50;;;;;;5042261;28;20032;-60
2022/03/29 11:34:04;;;;;;;33.33;22.95;;;26.50;20.10;;;;;;5043386;28;20037;-60
2022/03/29 11:36:32;;;;;;;34.13;23.10;;;25.90;19.90;;;;;;5041898;28;20471;-60
2022/03/29 11:39:01;;;;;;;35.20;22.80;;;25.70;20.90;;;;;;5035549;28;20036;-60
2022/03/29 11:41:33;;;;;;;34.03;21.30;;;25.80;21.50;;;;;;5042463;28;20068;-61
2022/03/29 11:44:02;;;;;;;35.75;22.77;;;26.10;21.90;;;;;;5040218;28;20021;-61
2022/03/29 11:46:50;;;;;;;32.60;21.60;;;26.60;21.90;;;;;;5053732;28;20032;-61
2022/03/29 11:49:26;;;;;;;51.83;23.95;;;27.20;21.30;;;;;;5051873;28;20399;-61
2022/03/29 11:52:11;;;;;;;30.00;20.88;;;27.60;21.60;;;;;;5053976;28;20458;-61
2022/03/29 11:54:51;;;;;;;45.00;23.75;;;27.10;20.70;;;;;;5049103;28;20049;-62
2022/03/29 11:57:17;;;;;;;32.92;21.83;;;26.70;20.60;;;;;;5043248;28;20109;-62
2022/03/29 11:59:44;;;;;;;31.88;22.25;;;26.50;21.10;;;;;;5044071;28;20073;-62
2022/03/29 12:02:10;;;;;;;32.63;21.63;;;26.00;20.70;;;;;;5035610;28;20041;-61
2022/03/29 12:04:39;;;;;;;29.55;21.63;;;26.00;21.20;;;;;;5051710;28;20056;-61
2022/03/29 12:07:05;;;;;;;38.42;21.38;;;26.40;21.20;;;;;;5046993;28;20021;-59
2022/03/29 12:09:32;;;;;;;36.80;20.90;;;26.60;21.30;;;;;;5043903;28;20029;-61
2022/03/29 12:12:01;;;;;;;28.75;20.58;;;26.30;21.20;;;;;;5044424;28;20033;-61
2022/03/29 12:14:27;;;;;;;39.22;22.30;;;26.40;21.40;;;;;;5044754;28;20501;-61
2022/03/29 12:16:58;;;;;;;48.45;23.45;;;26.50;21.10;;;;;;5041267;28;20029;-62
2022/03/29 12:19:25;;;;;;;;;;;26.30;21.10;;;;;;5041936;28;20048;-61
2022/03/29 12:21:59;;;;;;;35.95;21.52;;;26.40;21.20;;;;;;5041747;28;19917;-61
2022/03/29 12:24:27;;;;;;;28.92;20.80;;;26.50;21.20;;;;;;5050393;28;20029;-61
2022/03/29 12:27:04;;;;;;;61.00;27.50;;;26.60;20.80;;;;;;5051816;28;20095;-61
2022/03/29 12:29:33;;;;;;;31.55;21.70;;;26.20;20.80;;;;;;5051762;28;20029;-61
2022/03/29 12:32:02;;;;;;;29.05;20.42;;;26.40;21.50;;;;;;5043242;28;20048;-61
2022/03/29 12:34:30;;;;;;;43.25;23.10;;;26.70;21.60;;;;;;5041812;28;20037;-61
2022/03/29 12:37:04;;;;;;;36.40;22.48;;;26.40;20.70;;;;;;5054759;28;20482;-61
2022/03/29 12:39:39;;;;;;;39.15;22.77;;;26.10;21.00;;;;;;5057367;28;20091;-61
2022/03/29 12:42:10;;;;;;;47.28;22.38;;;25.80;21.20;;;;;;5050611;28;20052;-61
2022/03/29 12:44:43;;;;;;;37.33;21.42;;;25.70;21.40;;;;;;5043015;28;20021;-61
2022/03/29 12:47:10;;;;;;;44.03;22.80;;;25.80;21.50;;;;;;5039158;28;20033;-61